createdAt,value
2017-11-09T00:00:09.433Z,43.10
2017-11-09T00:00:52.279Z,42.22
2017-11-09T00:01:32.896Z,41.03
2017-11-09T00:02:21.588Z,41.95
2017-11-09T00:02:57.326Z,39.15
2017-11-09T00:03:34.199Z,41.85
2017-11-09T00:04:14.769Z,40.25
2017-11-09T00:04:55.369Z,41.17
2017-11-09T00:05:48.774Z,39.70
2017-11-09T00:06:23.977Z,38.72
2017-11-09T00:06:59.758Z,42.72
2017-11-09T00:07:34.744Z,40.47
2017-11-09T00:08:10.835Z,43.15
2017-11-09T00:08:46.699Z,41.37
2017-11-09T00:09:22.612Z,41.40
2017-11-09T00:09:58.065Z,41.53
2017-11-09T00:10:33.159Z,42.30
2017-11-09T00:11:07.795Z,41.88
2017-11-09T00:11:42.622Z,42.22
2017-11-09T00:12:17.408Z,43.15
2017-11-09T00:12:51.685Z,42.75
2017-11-09T00:13:25.554Z,44.13
2017-11-09T00:13:59.454Z,42.28
2017-11-09T00:14:33.353Z,41.53
2017-11-09T00:15:07.277Z,43.10
2017-11-09T00:15:41.164Z,45.05
2017-11-09T00:16:15.065Z,44.28
2017-11-09T00:16:48.937Z,44.72
2017-11-09T00:17:22.816Z,44.45
2017-11-09T00:17:56.709Z,43.65
2017-11-09T00:18:30.605Z,45.42
2017-11-09T00:19:04.506Z,44.45
2017-11-09T00:19:38.404Z,40.72
2017-11-09T00:20:12.285Z,42.58
2017-11-09T00:20:46.312Z,43.20
2017-11-09T00:21:20.208Z,46.37
2017-11-09T00:21:54.102Z,45.12
2017-11-09T00:22:28.000Z,44.80
2017-11-09T00:23:01.907Z,43.85
2017-11-09T00:23:35.801Z,42.25
2017-11-09T00:24:09.689Z,44.80
2017-11-09T00:24:43.576Z,44.45
2017-11-09T00:25:17.477Z,42.30
2017-11-09T00:25:51.370Z,43.97
2017-11-09T00:26:25.265Z,45.83
2017-11-09T00:26:59.146Z,43.87
2017-11-09T00:27:33.033Z,45.20
2017-11-09T00:28:06.934Z,43.33
2017-11-09T00:28:40.841Z,42.75
2017-11-09T00:29:14.738Z,44.15
2017-11-09T00:29:48.615Z,43.10
2017-11-09T00:30:22.494Z,45.15
2017-11-09T00:30:56.393Z,45.72
2017-11-09T00:31:30.278Z,43.58
2017-11-09T00:32:04.183Z,43.47
2017-11-09T00:32:38.076Z,45.92
2017-11-09T00:33:12.009Z,43.45
2017-11-09T00:33:45.892Z,44.60
2017-11-09T00:34:19.787Z,43.13
2017-11-09T00:34:53.669Z,44.85
2017-11-09T00:35:27.551Z,42.55
2017-11-09T00:36:01.456Z,42.47
2017-11-09T00:36:35.337Z,46.25
2017-11-09T00:37:09.232Z,42.55
2017-11-09T00:37:43.121Z,42.47
2017-11-09T00:38:17.038Z,42.35
2017-11-09T00:38:50.923Z,44.97
2017-11-09T00:39:24.806Z,44.50
2017-11-09T00:39:58.680Z,43.22
2017-11-09T00:40:32.573Z,46.22
2017-11-09T00:41:06.494Z,42.70
2017-11-09T00:41:40.377Z,43.35
2017-11-09T00:42:14.273Z,43.80
2017-11-09T00:42:48.143Z,42.75
2017-11-09T00:43:22.178Z,42.13
2017-11-09T00:43:56.066Z,43.58
2017-11-09T00:44:29.960Z,44.13
2017-11-09T00:45:03.856Z,43.45
2017-11-09T00:45:37.746Z,41.95
2017-11-09T00:46:11.697Z,43.53
2017-11-09T00:46:45.578Z,43.25
2017-11-09T00:47:19.479Z,41.72
2017-11-09T00:47:53.366Z,44.38
2017-11-09T00:48:27.255Z,43.53
2017-11-09T00:49:01.156Z,44.95
2017-11-09T00:49:35.034Z,44.75
2017-11-09T00:50:08.904Z,42.28
2017-11-09T00:50:42.773Z,42.72
2017-11-09T00:51:16.662Z,43.13
2017-11-09T00:51:50.557Z,44.70
2017-11-09T00:52:24.455Z,42.53
2017-11-09T00:52:58.345Z,44.97
2017-11-09T00:53:32.232Z,44.15
2017-11-09T00:54:06.121Z,44.08
2017-11-09T00:54:40.034Z,44.55
2017-11-09T00:55:13.929Z,44.08
2017-11-09T00:55:47.818Z,44.60
2017-11-09T00:56:21.733Z,42.80
2017-11-09T00:56:55.672Z,43.42
2017-11-09T00:57:29.545Z,43.50
2017-11-09T00:58:03.429Z,43.70
2017-11-09T00:58:37.340Z,42.35
2017-11-09T00:59:11.216Z,45.47
2017-11-09T00:59:45.103Z,42.45
2017-11-09T01:00:19.004Z,41.30
2017-11-09T01:00:52.892Z,44.33
2017-11-09T01:01:26.781Z,43.33
2017-11-09T01:02:00.692Z,43.05
2017-11-09T01:02:34.580Z,42.60
2017-11-09T01:03:08.464Z,42.90
2017-11-09T01:03:42.375Z,43.35
2017-11-09T01:04:16.309Z,44.85
2017-11-09T01:04:50.169Z,43.50
2017-11-09T01:05:24.048Z,44.40
2017-11-09T01:05:57.945Z,44.50
2017-11-09T01:06:31.845Z,44.28
2017-11-09T01:07:05.729Z,43.42
2017-11-09T01:07:39.676Z,43.33
2017-11-09T01:08:13.572Z,42.62
2017-11-09T01:08:47.468Z,44.30
2017-11-09T01:09:21.357Z,46.42
2017-11-09T01:09:55.260Z,42.97
2017-11-09T01:10:29.148Z,43.00
2017-11-09T01:11:03.028Z,43.70
2017-11-09T01:11:36.930Z,45.00
2017-11-09T01:12:10.835Z,42.28
2017-11-09T01:12:44.726Z,43.63
2017-11-09T01:13:18.617Z,42.20
2017-11-09T01:13:52.512Z,44.95
2017-11-09T01:14:26.415Z,42.10
2017-11-09T01:15:02.680Z,44.88
2017-11-09T01:15:37.682Z,43.53
2017-11-09T01:16:11.567Z,45.97
2017-11-09T01:16:45.469Z,43.60
2017-11-09T01:17:19.389Z,42.00
2017-11-09T01:17:53.285Z,42.28
2017-11-09T01:18:27.191Z,43.22
2017-11-09T01:19:01.081Z,43.33
2017-11-09T01:19:34.972Z,44.20
2017-11-09T01:20:08.869Z,42.47
2017-11-09T01:20:42.766Z,41.75
2017-11-09T01:21:16.656Z,41.85
2017-11-09T01:21:50.549Z,43.30
2017-11-09T01:22:24.437Z,42.65
2017-11-09T01:22:58.308Z,45.45
2017-11-09T01:23:32.206Z,43.25
2017-11-09T01:24:06.124Z,43.22
2017-11-09T01:24:39.998Z,42.35
2017-11-09T01:25:13.890Z,45.22
2017-11-09T01:25:47.782Z,44.05
2017-11-09T01:26:21.738Z,40.80
2017-11-09T01:26:55.643Z,41.50
2017-11-09T01:27:29.538Z,42.10
2017-11-09T01:28:03.437Z,41.13
2017-11-09T01:28:37.317Z,42.58
2017-11-09T01:29:11.259Z,40.53
2017-11-09T01:29:45.152Z,42.15
2017-11-09T01:30:19.053Z,40.95
2017-11-09T01:30:53.634Z,40.85
2017-11-09T01:31:27.521Z,40.03
2017-11-09T01:32:01.484Z,42.75
2017-11-09T01:32:35.405Z,41.47
2017-11-09T01:33:09.291Z,43.90
2017-11-09T01:33:43.190Z,39.13
2017-11-09T01:34:17.084Z,42.33
2017-11-09T01:34:50.984Z,40.17
2017-11-09T01:35:24.878Z,41.65
2017-11-09T01:35:58.764Z,42.25
2017-11-09T01:36:32.640Z,38.33
2017-11-09T01:37:06.546Z,39.20
2017-11-09T01:37:40.444Z,39.70
2017-11-09T01:38:14.344Z,42.65
2017-11-09T01:38:48.238Z,39.65
2017-11-09T01:39:22.139Z,40.78
2017-11-09T01:39:56.029Z,39.50
2017-11-09T01:40:29.918Z,40.83
2017-11-09T01:41:04.529Z,42.13
2017-11-09T01:41:38.422Z,40.00
2017-11-09T01:42:12.333Z,42.67
2017-11-09T01:42:46.222Z,38.53
2017-11-09T01:43:20.147Z,40.45
2017-11-09T01:43:54.060Z,41.50
2017-11-09T01:44:27.974Z,42.03
2017-11-09T01:45:01.862Z,41.70
2017-11-09T01:45:35.727Z,40.85
2017-11-09T01:46:09.623Z,41.20
2017-11-09T01:46:43.503Z,39.63
2017-11-09T01:47:17.418Z,38.15
2017-11-09T01:47:51.307Z,39.20
2017-11-09T01:48:25.207Z,41.35
2017-11-09T01:48:59.100Z,42.10
2017-11-09T01:49:33.108Z,40.53
2017-11-09T01:50:06.989Z,40.55
2017-11-09T01:50:40.869Z,38.95
2017-11-09T01:51:14.757Z,39.60
2017-11-09T01:51:48.647Z,40.97
2017-11-09T01:52:22.529Z,39.15
2017-11-09T01:52:56.421Z,39.30
2017-11-09T01:53:30.324Z,40.25
2017-11-09T01:54:04.256Z,38.00
2017-11-09T01:54:38.155Z,37.38
2017-11-09T01:55:12.044Z,38.22
2017-11-09T01:55:45.939Z,39.05
2017-11-09T01:56:19.839Z,40.12
2017-11-09T01:56:53.729Z,39.75
2017-11-09T01:57:27.604Z,40.10
2017-11-09T01:58:01.480Z,39.75
2017-11-09T01:58:35.371Z,38.55
2017-11-09T01:59:09.265Z,39.75
2017-11-09T01:59:43.167Z,40.05
2017-11-09T02:00:17.055Z,39.92
2017-11-09T02:00:50.955Z,40.08
2017-11-09T02:01:24.856Z,38.40
2017-11-09T02:01:58.750Z,40.15
2017-11-09T02:02:32.628Z,40.17
2017-11-09T02:03:06.537Z,40.38
2017-11-09T02:03:40.426Z,43.25
2017-11-09T02:04:14.316Z,38.97
2017-11-09T02:04:48.264Z,40.65
2017-11-09T02:05:23.001Z,41.00
2017-11-09T02:05:56.871Z,38.35
2017-11-09T02:06:31.676Z,37.92
2017-11-09T02:07:05.555Z,41.45
2017-11-09T02:07:39.459Z,42.00
2017-11-09T02:08:13.360Z,42.58
2017-11-09T02:08:47.255Z,42.20
2017-11-09T02:09:21.148Z,42.45
2017-11-09T02:09:55.042Z,41.13
2017-11-09T02:10:28.934Z,42.42
2017-11-09T02:11:02.834Z,43.45
2017-11-09T02:11:36.729Z,40.17
2017-11-09T02:12:10.629Z,41.75
2017-11-09T02:12:44.516Z,39.03
2017-11-09T02:13:18.445Z,39.10
2017-11-09T02:13:52.332Z,39.00
2017-11-09T02:14:26.235Z,40.70
2017-11-09T02:15:00.121Z,40.38
2017-11-09T02:15:34.019Z,42.75
2017-11-09T02:16:07.909Z,39.00
2017-11-09T02:16:41.808Z,41.08
2017-11-09T02:17:15.685Z,40.33
2017-11-09T02:17:49.569Z,42.03
2017-11-09T02:18:23.462Z,42.78
2017-11-09T02:18:57.354Z,39.97
2017-11-09T02:19:31.241Z,41.25
2017-11-09T02:20:05.145Z,40.12
2017-11-09T02:20:39.045Z,42.08
2017-11-09T02:21:12.940Z,39.58
2017-11-09T02:21:46.827Z,40.15
2017-11-09T02:22:20.716Z,41.03
2017-11-09T02:22:54.619Z,38.85
2017-11-09T02:23:28.496Z,40.92
2017-11-09T02:24:02.371Z,40.42
2017-11-09T02:24:36.230Z,40.47
2017-11-09T02:25:10.120Z,41.47
2017-11-09T02:25:44.022Z,40.15
2017-11-09T02:26:17.913Z,40.63
2017-11-09T02:26:51.804Z,40.63
2017-11-09T02:27:25.703Z,38.65
2017-11-09T02:27:59.608Z,40.00
2017-11-09T02:28:33.475Z,39.92
2017-11-09T02:29:07.355Z,42.00
2017-11-09T02:29:41.217Z,41.65
2017-11-09T02:30:15.132Z,39.72
2017-11-09T02:30:49.033Z,40.67
2017-11-09T02:31:22.903Z,39.38
2017-11-09T02:31:56.772Z,42.72
2017-11-09T02:32:30.647Z,40.03
2017-11-09T02:33:04.543Z,41.17
2017-11-09T02:33:38.433Z,40.17
2017-11-09T02:34:12.330Z,39.92
2017-11-09T02:34:46.206Z,38.80
2017-11-09T02:35:20.128Z,39.63
2017-11-09T02:35:54.014Z,39.25
2017-11-09T02:36:27.885Z,39.67
2017-11-09T02:37:01.777Z,41.78
2017-11-09T02:37:35.674Z,38.60
2017-11-09T02:38:09.570Z,40.58
2017-11-09T02:38:43.445Z,41.05
2017-11-09T02:39:17.317Z,40.30
2017-11-09T02:39:51.208Z,40.40
2017-11-09T02:40:25.108Z,40.15
2017-11-09T02:40:58.983Z,39.60
2017-11-09T02:41:32.863Z,39.17
2017-11-09T02:42:06.750Z,40.92
2017-11-09T02:42:40.650Z,37.97
2017-11-09T02:43:14.530Z,38.40
2017-11-09T02:43:48.410Z,37.72
2017-11-09T02:44:22.290Z,38.60
2017-11-09T02:44:56.201Z,41.85
2017-11-09T02:45:30.091Z,39.22
2017-11-09T02:46:03.993Z,38.80
2017-11-09T02:46:37.884Z,37.03
2017-11-09T02:47:11.780Z,38.85
2017-11-09T02:47:45.698Z,38.30
2017-11-09T02:48:19.597Z,39.38
2017-11-09T02:48:53.495Z,36.60
2017-11-09T02:49:27.390Z,39.13
2017-11-09T02:50:01.288Z,39.53
2017-11-09T02:50:35.207Z,38.08
2017-11-09T02:51:09.091Z,37.88
2017-11-09T02:51:42.973Z,37.05
2017-11-09T02:52:16.844Z,40.42
2017-11-09T02:52:50.739Z,38.22
2017-11-09T02:53:24.625Z,38.92
2017-11-09T02:53:58.512Z,39.20
2017-11-09T02:54:32.690Z,38.58
2017-11-09T02:55:06.568Z,38.20
2017-11-09T02:55:40.469Z,38.90
2017-11-09T02:56:14.360Z,40.08
2017-11-09T02:56:48.254Z,37.97
2017-11-09T02:57:22.152Z,37.53
2017-11-09T02:57:56.041Z,41.13
2017-11-09T02:58:29.917Z,37.97
2017-11-09T02:59:03.822Z,41.17
2017-11-09T02:59:37.742Z,38.90
2017-11-09T03:00:11.630Z,39.30
2017-11-09T03:00:45.533Z,40.12
2017-11-09T03:01:19.421Z,39.88
2017-11-09T03:01:53.291Z,39.35
2017-11-09T03:02:27.169Z,39.67
2017-11-09T03:03:01.057Z,39.45
2017-11-09T03:03:34.944Z,38.15
2017-11-09T03:04:09.440Z,39.78
2017-11-09T03:04:43.327Z,38.35
2017-11-09T03:05:17.201Z,38.60
2017-11-09T03:05:51.087Z,39.10
2017-11-09T03:06:24.967Z,37.78
2017-11-09T03:06:58.852Z,39.85
2017-11-09T03:07:32.729Z,39.55
2017-11-09T03:08:06.622Z,40.90
2017-11-09T03:08:40.510Z,39.78
2017-11-09T03:09:14.402Z,39.25
2017-11-09T03:09:48.286Z,39.75
2017-11-09T03:10:22.185Z,40.08
2017-11-09T03:10:56.093Z,40.10
2017-11-09T03:11:29.966Z,37.72
2017-11-09T03:12:03.858Z,39.65
2017-11-09T03:12:37.752Z,38.78
2017-11-09T03:13:11.658Z,40.20
2017-11-09T03:13:45.538Z,38.80
2017-11-09T03:14:19.477Z,37.20
2017-11-09T03:14:53.346Z,40.85
2017-11-09T03:15:27.329Z,37.30
2017-11-09T03:16:01.222Z,39.10
2017-11-09T03:16:35.114Z,38.35
2017-11-09T03:17:08.995Z,38.33
2017-11-09T03:17:42.879Z,40.30
2017-11-09T03:18:16.761Z,39.55
2017-11-09T03:18:50.655Z,37.47
2017-11-09T03:19:24.556Z,37.65
2017-11-09T03:19:58.456Z,38.08
2017-11-09T03:20:32.355Z,39.70
2017-11-09T03:21:06.390Z,37.35
2017-11-09T03:21:40.279Z,39.25
2017-11-09T03:22:14.169Z,38.83
2017-11-09T03:22:48.055Z,39.47
2017-11-09T03:23:21.936Z,37.05
2017-11-09T03:23:55.816Z,38.97
2017-11-09T03:24:29.684Z,38.58
2017-11-09T03:25:03.583Z,38.30
2017-11-09T03:25:37.459Z,36.67
2017-11-09T03:26:11.348Z,38.05
2017-11-09T03:26:45.231Z,38.88
2017-11-09T03:27:19.163Z,37.20
2017-11-09T03:27:53.031Z,37.72
2017-11-09T03:28:26.901Z,37.55
2017-11-09T03:29:00.800Z,37.00
2017-11-09T03:29:34.686Z,40.33
2017-11-09T03:30:08.586Z,37.90
2017-11-09T03:30:42.475Z,38.05
2017-11-09T03:31:16.375Z,38.30
2017-11-09T03:31:50.270Z,39.08
2017-11-09T03:32:24.187Z,39.63
2017-11-09T03:32:58.097Z,39.40
2017-11-09T03:33:31.982Z,39.58
2017-11-09T03:34:05.877Z,40.95
2017-11-09T03:34:39.774Z,39.58
2017-11-09T03:35:13.655Z,38.88
2017-11-09T03:35:47.527Z,39.50
2017-11-09T03:36:21.425Z,37.67
2017-11-09T03:36:55.305Z,39.47
2017-11-09T03:37:29.219Z,39.40
2017-11-09T03:38:03.107Z,39.33
2017-11-09T03:38:36.976Z,41.83
2017-11-09T03:39:10.869Z,39.78
2017-11-09T03:39:44.759Z,38.15
2017-11-09T03:40:18.620Z,38.75
2017-11-09T03:40:52.515Z,39.78
2017-11-09T03:41:26.415Z,38.53
2017-11-09T03:42:00.286Z,40.38
2017-11-09T03:42:34.156Z,40.63
2017-11-09T03:43:08.038Z,41.28
2017-11-09T03:43:42.079Z,37.38
2017-11-09T03:44:15.970Z,38.17
2017-11-09T03:44:50.053Z,39.08
2017-11-09T03:45:23.948Z,39.78
2017-11-09T03:45:57.821Z,38.90
2017-11-09T03:46:31.698Z,39.90
2017-11-09T03:47:05.577Z,39.17
2017-11-09T03:47:39.498Z,39.45
2017-11-09T03:48:13.395Z,37.95
2017-11-09T03:48:47.267Z,36.70
2017-11-09T03:49:21.129Z,38.78
2017-11-09T03:49:55.014Z,38.30
2017-11-09T03:50:28.925Z,37.30
2017-11-09T03:51:02.799Z,38.53
2017-11-09T03:51:36.692Z,38.83
2017-11-09T03:52:10.571Z,38.88
2017-11-09T03:52:44.453Z,38.08
2017-11-09T03:53:18.337Z,38.58
2017-11-09T03:53:52.236Z,39.55
2017-11-09T03:54:26.111Z,39.47
2017-11-09T03:54:59.998Z,40.42
2017-11-09T03:55:33.873Z,38.05
2017-11-09T03:56:07.752Z,39.53
2017-11-09T03:56:41.655Z,39.22
2017-11-09T03:57:15.539Z,38.78
2017-11-09T03:57:49.408Z,39.65
2017-11-09T03:58:23.281Z,38.30
2017-11-09T03:58:57.176Z,39.17
2017-11-09T03:59:31.066Z,41.60
2017-11-09T04:00:04.958Z,40.38
2017-11-09T04:00:38.866Z,38.35
2017-11-09T04:01:12.754Z,38.75
2017-11-09T04:01:46.650Z,39.88
2017-11-09T04:02:20.580Z,40.22
2017-11-09T04:02:54.472Z,37.85
2017-11-09T04:03:28.367Z,38.80
2017-11-09T04:04:02.877Z,41.00
2017-11-09T04:04:36.754Z,40.20
2017-11-09T04:05:10.630Z,39.08
2017-11-09T04:05:44.531Z,38.75
2017-11-09T04:06:18.416Z,40.72
2017-11-09T04:06:52.319Z,41.35
2017-11-09T04:07:26.208Z,39.45
2017-11-09T04:08:00.102Z,38.95
2017-11-09T04:08:34.064Z,39.85
2017-11-09T04:09:07.932Z,40.63
2017-11-09T04:09:41.820Z,40.47
2017-11-09T04:10:15.718Z,40.35
2017-11-09T04:10:49.592Z,40.40
2017-11-09T04:11:23.476Z,39.13
2017-11-09T04:11:57.378Z,41.55
2017-11-09T04:12:31.272Z,41.20
2017-11-09T04:13:05.156Z,38.20
2017-11-09T04:13:39.026Z,38.90
2017-11-09T04:14:12.912Z,42.30
2017-11-09T04:14:46.838Z,39.60
2017-11-09T04:15:20.735Z,38.65
2017-11-09T04:15:54.631Z,41.85
2017-11-09T04:16:28.525Z,39.58
2017-11-09T04:17:02.411Z,39.53
2017-11-09T04:17:36.279Z,37.45
2017-11-09T04:18:10.268Z,41.10
2017-11-09T04:18:44.137Z,38.58
2017-11-09T04:19:18.040Z,38.08
2017-11-09T04:19:51.921Z,40.47
2017-11-09T04:20:25.796Z,40.78
2017-11-09T04:20:59.693Z,41.55
2017-11-09T04:21:33.572Z,38.72
2017-11-09T04:22:07.471Z,40.42
2017-11-09T04:22:41.378Z,40.20
2017-11-09T04:23:15.293Z,36.75
2017-11-09T04:23:49.171Z,37.22
2017-11-09T04:24:23.054Z,40.60
2017-11-09T04:24:56.948Z,41.42
2017-11-09T04:25:30.837Z,39.60
2017-11-09T04:26:04.738Z,38.00
2017-11-09T04:26:38.633Z,40.60
2017-11-09T04:27:12.532Z,38.38
2017-11-09T04:27:46.414Z,39.83
2017-11-09T04:28:20.347Z,39.30
2017-11-09T04:28:54.244Z,38.90
2017-11-09T04:29:28.119Z,39.85
2017-11-09T04:30:02.000Z,40.63
2017-11-09T04:30:35.922Z,39.78
2017-11-09T04:31:09.818Z,40.63
2017-11-09T04:31:43.763Z,40.85
2017-11-09T04:32:17.672Z,42.47
2017-11-09T04:32:51.563Z,39.92
2017-11-09T04:33:25.456Z,38.75
2017-11-09T04:33:59.351Z,40.97
2017-11-09T04:34:33.253Z,39.45
2017-11-09T04:35:07.153Z,37.75
2017-11-09T04:35:41.040Z,39.28
2017-11-09T04:36:14.975Z,39.42
2017-11-09T04:36:48.849Z,38.60
2017-11-09T04:37:22.745Z,40.60
2017-11-09T04:37:56.638Z,39.80
2017-11-09T04:38:30.617Z,40.12
2017-11-09T04:39:04.504Z,39.88
2017-11-09T04:39:38.443Z,38.38
2017-11-09T04:40:12.335Z,39.58
2017-11-09T04:40:46.229Z,40.22
2017-11-09T04:41:20.097Z,41.83
2017-11-09T04:41:53.984Z,38.75
2017-11-09T04:42:27.880Z,41.83
2017-11-09T04:43:01.777Z,39.85
2017-11-09T04:43:35.673Z,39.67
2017-11-09T04:44:09.595Z,41.47
2017-11-09T04:44:43.478Z,39.25
2017-11-09T04:45:17.357Z,41.72
2017-11-09T04:45:51.241Z,40.95
2017-11-09T04:46:25.140Z,38.40
2017-11-09T04:46:59.042Z,38.88
2017-11-09T04:47:32.938Z,38.15
2017-11-09T04:48:06.853Z,38.78
2017-11-09T04:48:40.754Z,39.63
2017-11-09T04:49:14.645Z,40.83
2017-11-09T04:49:48.522Z,40.15
2017-11-09T04:50:22.400Z,40.83
2017-11-09T04:50:56.282Z,39.40
2017-11-09T04:51:30.161Z,38.17
2017-11-09T04:52:04.032Z,39.10
2017-11-09T04:52:37.940Z,40.70
2017-11-09T04:53:11.821Z,39.42
2017-11-09T04:53:45.698Z,42.03
2017-11-09T04:54:19.597Z,39.08
2017-11-09T04:54:53.490Z,41.58
2017-11-09T04:55:27.393Z,38.63
2017-11-09T04:56:01.336Z,41.42
2017-11-09T04:56:35.350Z,38.20
2017-11-09T04:57:09.226Z,39.63
2017-11-09T04:57:43.129Z,39.70
2017-11-09T04:58:17.004Z,41.70
2017-11-09T04:58:50.938Z,40.30
2017-11-09T04:59:24.830Z,41.15
2017-11-09T04:59:58.719Z,39.10
2017-11-09T05:00:32.613Z,39.10
2017-11-09T05:01:06.485Z,39.35
2017-11-09T05:01:40.389Z,39.47
2017-11-09T05:02:14.270Z,39.88
2017-11-09T05:02:48.156Z,38.58
2017-11-09T05:03:22.031Z,38.55
2017-11-09T05:03:55.912Z,37.97
2017-11-09T05:04:29.860Z,38.72
2017-11-09T05:05:03.736Z,38.28
2017-11-09T05:05:37.619Z,38.70
2017-11-09T05:06:11.512Z,40.50
2017-11-09T05:06:45.381Z,37.50
2017-11-09T05:07:19.265Z,39.67
2017-11-09T05:07:53.171Z,38.58
2017-11-09T05:08:27.073Z,39.85
2017-11-09T05:09:00.963Z,42.40
2017-11-09T05:09:34.854Z,41.10
2017-11-09T05:10:08.749Z,38.30
2017-11-09T05:10:42.642Z,38.97
2017-11-09T05:11:16.531Z,39.00
2017-11-09T05:11:50.471Z,39.53
2017-11-09T05:12:24.570Z,39.30
2017-11-09T05:12:59.205Z,40.22
2017-11-09T05:13:33.081Z,41.22
2017-11-09T05:14:07.012Z,42.67
2017-11-09T05:14:40.913Z,42.38
2017-11-09T05:15:14.822Z,41.58
2017-11-09T05:15:48.871Z,40.72
2017-11-09T05:16:22.741Z,42.30
2017-11-09T05:16:56.625Z,42.67
2017-11-09T05:17:30.563Z,39.58
2017-11-09T05:18:04.464Z,41.20
2017-11-09T05:18:38.346Z,40.55
2017-11-09T05:19:12.228Z,41.60
2017-11-09T05:19:46.093Z,40.88
2017-11-09T05:20:20.013Z,39.92
2017-11-09T05:20:53.893Z,43.17
2017-11-09T05:21:27.787Z,40.55
2017-11-09T05:22:01.684Z,39.60
2017-11-09T05:22:35.575Z,39.55
2017-11-09T05:23:09.465Z,41.50
2017-11-09T05:23:43.343Z,37.10
2017-11-09T05:24:17.216Z,37.63
2017-11-09T05:24:51.116Z,38.17
2017-11-09T05:25:24.995Z,38.28
2017-11-09T05:25:58.875Z,40.03
2017-11-09T05:26:32.768Z,38.40
2017-11-09T05:27:06.695Z,38.88
2017-11-09T05:27:40.663Z,41.03
2017-11-09T05:28:14.567Z,36.83
2017-11-09T05:28:48.457Z,36.88
2017-11-09T05:29:22.329Z,37.28
2017-11-09T05:29:56.214Z,38.88
2017-11-09T05:30:30.118Z,36.00
2017-11-09T05:31:04.004Z,39.40
2017-11-09T05:31:37.891Z,41.03
2017-11-09T05:32:11.803Z,39.10
2017-11-09T05:32:45.708Z,36.42
2017-11-09T05:33:19.624Z,37.28
2017-11-09T05:33:53.515Z,41.70
2017-11-09T05:34:27.395Z,38.35
2017-11-09T05:35:01.400Z,40.70
2017-11-09T05:35:35.352Z,39.28
2017-11-09T05:36:09.300Z,40.55
2017-11-09T05:36:43.180Z,39.60
2017-11-09T05:37:17.077Z,40.25
2017-11-09T05:37:50.964Z,40.50
2017-11-09T05:38:24.892Z,41.30
2017-11-09T05:38:58.780Z,40.97
2017-11-09T05:39:32.686Z,42.38
2017-11-09T05:40:06.563Z,41.30
2017-11-09T05:40:40.467Z,41.00
2017-11-09T05:41:14.434Z,42.85
2017-11-09T05:41:48.308Z,42.42
2017-11-09T05:42:22.258Z,38.17
2017-11-09T05:42:56.171Z,40.60
2017-11-09T05:43:30.078Z,39.13
2017-11-09T05:44:03.939Z,41.85
2017-11-09T05:44:37.823Z,39.33
2017-11-09T05:45:11.694Z,38.95
2017-11-09T05:45:45.578Z,41.00
2017-11-09T05:46:19.448Z,42.60
2017-11-09T05:46:53.334Z,40.45
2017-11-09T05:47:27.222Z,43.13
2017-11-09T05:48:01.126Z,40.38
2017-11-09T05:48:35.099Z,39.20
2017-11-09T05:49:08.984Z,38.15
2017-11-09T05:49:42.872Z,39.58
2017-11-09T05:50:16.748Z,38.47
2017-11-09T05:50:50.621Z,38.00
2017-11-09T05:51:24.544Z,36.83
2017-11-09T05:51:58.435Z,40.45
2017-11-09T05:52:32.325Z,37.53
2017-11-09T05:53:06.235Z,38.83
2017-11-09T05:53:40.141Z,38.50
2017-11-09T05:54:14.024Z,38.95
2017-11-09T05:54:47.973Z,35.28
2017-11-09T05:55:21.865Z,40.67
2017-11-09T05:55:55.751Z,38.95
2017-11-09T05:56:29.629Z,38.10
2017-11-09T05:57:03.572Z,40.42
2017-11-09T05:57:37.470Z,38.75
2017-11-09T05:58:11.351Z,38.35
2017-11-09T05:58:45.278Z,38.90
2017-11-09T05:59:19.187Z,38.50
2017-11-09T05:59:53.067Z,38.17
2017-11-09T06:00:26.944Z,38.92
2017-11-09T06:01:01.039Z,37.28
2017-11-09T06:01:34.944Z,38.17
2017-11-09T06:02:08.918Z,38.50
2017-11-09T06:02:42.791Z,37.88
2017-11-09T06:03:16.685Z,39.65
2017-11-09T06:03:50.700Z,42.00
2017-11-09T06:04:24.587Z,37.45
2017-11-09T06:04:58.498Z,36.50
2017-11-09T06:05:32.378Z,37.75
2017-11-09T06:06:06.287Z,38.45
2017-11-09T06:06:40.181Z,36.50
2017-11-09T06:07:14.056Z,35.85
2017-11-09T06:07:48.110Z,37.03
2017-11-09T06:08:22.067Z,34.33
2017-11-09T06:08:56.035Z,36.95
2017-11-09T06:09:29.929Z,35.53
2017-11-09T06:10:03.836Z,39.50
2017-11-09T06:10:37.721Z,36.45
2017-11-09T06:11:11.623Z,36.00
2017-11-09T06:11:45.590Z,37.20
2017-11-09T06:12:19.529Z,38.95
2017-11-09T06:12:53.408Z,38.13
2017-11-09T06:13:27.301Z,39.35
2017-11-09T06:14:01.229Z,39.17
2017-11-09T06:14:35.110Z,39.85
2017-11-09T06:15:09.150Z,41.05
2017-11-09T06:15:43.043Z,37.90
2017-11-09T06:16:16.942Z,38.30
2017-11-09T06:16:50.869Z,38.58
2017-11-09T06:17:24.761Z,40.53
2017-11-09T06:17:58.724Z,41.05
2017-11-09T06:18:32.632Z,38.20
2017-11-09T06:19:06.553Z,40.08
2017-11-09T06:19:40.524Z,39.95
2017-11-09T06:20:14.405Z,38.95
2017-11-09T06:20:48.280Z,39.22
2017-11-09T06:21:22.359Z,38.78
2017-11-09T06:21:56.236Z,40.85
2017-11-09T06:22:30.122Z,38.53
2017-11-09T06:23:04.022Z,40.78
2017-11-09T06:23:37.918Z,37.80
2017-11-09T06:24:11.866Z,38.00
2017-11-09T06:24:45.780Z,37.63
2017-11-09T06:25:19.673Z,35.58
2017-11-09T06:25:53.564Z,36.95
2017-11-09T06:26:27.516Z,35.15
2017-11-09T06:27:01.423Z,35.60
2017-11-09T06:27:35.350Z,34.13
2017-11-09T06:28:09.237Z,36.70
2017-11-09T06:28:43.235Z,34.42
2017-11-09T06:29:17.144Z,36.95
2017-11-09T06:29:51.020Z,36.47
2017-11-09T06:30:24.967Z,36.40
2017-11-09T06:30:58.849Z,36.15
2017-11-09T06:31:32.767Z,36.80
2017-11-09T06:32:06.677Z,38.03
2017-11-09T06:32:40.587Z,36.00
2017-11-09T06:33:14.483Z,39.80
2017-11-09T06:33:48.389Z,38.50
2017-11-09T06:34:22.325Z,38.15
2017-11-09T06:34:56.216Z,43.05
2017-11-09T06:35:30.143Z,42.55
2017-11-09T06:36:04.047Z,42.22
2017-11-09T06:36:38.002Z,41.40
2017-11-09T06:37:11.943Z,42.40
2017-11-09T06:37:45.925Z,38.40
2017-11-09T06:38:19.828Z,40.97
2017-11-09T06:38:54.419Z,40.28
2017-11-09T06:39:28.424Z,40.47
2017-11-09T06:40:02.321Z,37.70
2017-11-09T06:40:36.192Z,38.92
2017-11-09T06:41:10.188Z,38.47
2017-11-09T06:41:44.468Z,34.33
2017-11-09T06:42:18.358Z,35.05
2017-11-09T06:42:52.280Z,37.65
2017-11-09T06:43:26.156Z,37.30
2017-11-09T06:44:00.037Z,35.03
2017-11-09T06:44:33.935Z,36.28
2017-11-09T06:45:07.824Z,36.78
2017-11-09T06:45:41.724Z,37.08
2017-11-09T06:46:15.610Z,35.90
2017-11-09T06:46:49.583Z,35.08
2017-11-09T06:47:23.482Z,36.13
2017-11-09T06:47:57.392Z,33.72
2017-11-09T06:48:31.325Z,33.33
2017-11-09T06:49:05.230Z,34.97
2017-11-09T06:49:39.159Z,37.15
2017-11-09T06:50:13.040Z,36.80
2017-11-09T06:50:46.948Z,35.83
2017-11-09T06:51:21.010Z,36.28
2017-11-09T06:51:54.901Z,37.30
2017-11-09T06:52:28.812Z,35.80
2017-11-09T06:53:02.714Z,34.28
2017-11-09T06:53:36.607Z,36.72
2017-11-09T06:54:10.506Z,38.88
2017-11-09T06:54:44.435Z,38.83
2017-11-09T06:55:18.364Z,37.45
2017-11-09T06:55:52.258Z,38.70
2017-11-09T06:56:26.180Z,37.33
2017-11-09T06:57:00.782Z,38.28
2017-11-09T06:57:34.663Z,37.53
2017-11-09T06:58:08.578Z,39.88
2017-11-09T06:58:42.469Z,36.25
2017-11-09T06:59:16.367Z,36.63
2017-11-09T06:59:50.252Z,34.85
2017-11-09T07:00:24.111Z,38.00
2017-11-09T07:00:58.000Z,38.20
2017-11-09T07:01:31.898Z,37.65
2017-11-09T07:02:05.819Z,38.97
2017-11-09T07:02:39.717Z,39.90
2017-11-09T07:03:13.616Z,39.28
2017-11-09T07:03:47.540Z,39.03
2017-11-09T07:04:21.412Z,38.53
2017-11-09T07:04:55.359Z,39.00
2017-11-09T07:05:29.253Z,36.25
2017-11-09T07:06:03.166Z,37.40
2017-11-09T07:06:37.074Z,37.13
2017-11-09T07:07:11.019Z,38.42
2017-11-09T07:07:44.968Z,37.22
2017-11-09T07:08:18.835Z,40.05
2017-11-09T07:08:52.772Z,38.78
2017-11-09T07:09:26.718Z,38.38
2017-11-09T07:10:00.613Z,40.30
2017-11-09T07:10:34.491Z,37.90
2017-11-09T07:11:08.484Z,40.40
2017-11-09T07:11:42.364Z,39.95
2017-11-09T07:12:16.282Z,38.50
2017-11-09T07:12:50.341Z,38.72
2017-11-09T07:13:24.296Z,40.70
2017-11-09T07:13:58.224Z,39.40
2017-11-09T07:14:32.133Z,38.17
2017-11-09T07:15:06.051Z,39.97
2017-11-09T07:15:39.954Z,38.10
2017-11-09T07:16:13.861Z,38.30
2017-11-09T07:16:47.754Z,39.55
2017-11-09T07:17:21.704Z,38.33
2017-11-09T07:17:55.615Z,38.03